Terminal Aerodrome Forecast
Issued by NWS

Home | Current Version | Previous Version | Text Only | Print | Product List | Glossary On
Versions: 1 2 3 4 5 6 7 8 9 10 11 12 13 14 15 16 17 18 19 20 21 22 23 24 25 26 27 28 29 30 31 32 33 34 35 36 37 38
000
FTUS41 KRNK 190520
TAFBCB
TAF
KBCB 190520Z 1906/2006 00000KT P6SM BKN040 BKN060
     FM190900 09003KT 6SM BR OVC030
     FM191100 09004KT 4SM -DZ BR BKN004 OVC013
     FM191500 11007KT P6SM OVC018
     FM191900 12006KT P6SM SCT025 BKN035
     FM200100 11003KT P6SM SCT015 BKN025=

USA.gov is the U.S. government's official web portal to all federal, state and local government web resources and services.